Date,TemperatureHighF,TemperatureAvgF,TemperatureLowF,DewpointHighF,DewpointAvgF,DewpointLowF,HumidityHigh,HumidityAvg,HumidityLow,PressureMaxIn,PressureMinIn,WindSpeedMaxMPH,WindSpeedAvgMPH,GustSpeedMaxMPH,PrecipitationSumIn
2013-1-1,79,72,67,68,64,56,90,75,57,0.00,40.00,5,3,10,0.01
2013-1-2,79,72,67,65,61,56,82,68,55,0.00,40.00,4,3,12,0.01
2013-1-3,79,74,68,66,62,55,85,67,57,0.00,40.00,6,3,12,0.02
2013-1-4,80,73,68,66,61,53,85,65,55,0.00,40.00,4,3,10,0.02
2013-1-5,80,75,71,66,63,59,72,66,59,0.00,40.00,5,3,10,0.00
2013-1-6,80,74,68,63,59,51,69,60,53,0.00,40.00,5,3,11,0.00
2013-1-7,80,74,68,64,58,52,68,59,49,0.00,40.00,4,3,11,0.00
2013-1-8,79,74,69,62,58,50,69,58,42,0.00,40.00,5,3,12,0.00
2013-1-9,79,73,66,65,58,48,72,59,40,0.00,40.00,4,3,10,0.00
2013-1-10,79,73,68,65,58,50,71,59,45,0.00,40.00,4,3,8,0.00
2013-1-11,79,73,67,64,57,45,67,58,44,0.00,40.00,5,3,11,0.00
2013-1-12,79,74,68,66,58,50,68,60,52,0.00,40.00,4,3,9,0.00
2013-1-13,79,74,69,67,60,51,71,63,49,0.00,40.00,5,3,11,0.00
2013-1-14,82,74,67,68,60,46,76,62,45,0.00,40.00,6,3,14,0.00
2013-1-15,80,74,70,70,65,60,93,74,60,0.00,40.00,4,2,11,0.09
2013-1-16,79,73,66,68,64,58,95,75,54,0.00,40.00,6,3,15,0.11
2013-1-17,79,72,65,64,58,49,76,62,52,0.00,40.00,5,3,9,0.00
2013-1-18,78,72,65,61,56,47,66,58,44,0.00,40.00,5,4,13,0.00
2013-1-19,79,71,63,58,50,42,65,47,36,0.00,40.00,10,4,24,0.00
2013-1-20,78,71,64,59,52,41,61,52,40,0.00,40.00,6,4,12,0.00
2013-1-21,78,72,65,63,57,49,68,60,52,0.00,40.00,5,3,10,0.00
2013-1-22,80,74,69,62,59,54,72,60,50,0.00,40.00,4,3,9,0.00
2013-1-23,77,74,71,62,60,57,67,63,54,0.00,40.00,4,2,9,0.00
2013-1-24,79,74,68,63,59,49,69,61,42,0.00,40.00,4,3,10,0.00
2013-1-25,79,73,68,65,59,47,70,61,47,0.00,40.00,5,3,13,0.00
2013-1-26,80,73,66,64,58,49,71,60,47,0.00,40.00,5,3,13,0.00
2013-1-27,80,74,68,60,56,46,62,54,41,0.00,40.00,5,3,11,0.00
2013-1-28,80,74,68,63,56,50,62,55,46,0.00,40.00,7,3,14,0.00
2013-1-29,76,73,69,69,62,55,91,69,56,0.00,40.00,4,3,10,0.24
2013-1-30,79,72,68,68,66,61,98,80,58,0.00,40.00,4,2,14,0.43
2013-1-31,79,74,67,67,63,54,79,70,59,0.00,40.00,5,3,10,0.00
2013-2-1,80,74,69,66,62,55,76,66,59,0.00,40.00,5,3,10,0.00
2013-2-2,80,75,69,65,60,54,73,61,48,0.00,40.00,5,3,10,0.00
2013-2-3,77,72,67,63,60,53,74,65,51,0.00,40.00,5,3,10,0.00
2013-2-4,75,73,70,62,60,57,69,63,59,0.00,40.00,4,2,8,0.00
2013-2-5,78,73,67,63,58,49,68,60,47,0.00,40.00,4,2,10,0.00
2013-2-6,79,72,66,63,56,46,66,58,44,0.00,40.00,4,3,9,0.00
2013-2-7,80,73,67,63,58,51,69,60,50,0.00,40.00,4,3,8,0.00
2013-2-8,80,73,67,70,61,49,92,65,47,0.00,40.00,4,3,10,0.20
2013-2-9,79,73,65,68,62,54,91,71,53,0.00,40.00,4,3,10,0.20
2013-2-10,80,74,67,64,61,52,77,63,53,0.00,40.00,4,3,9,0.00
2013-2-11,80,74,68,65,61,50,79,63,51,0.00,40.00,5,3,10,0.00
2013-2-12,79,73,67,63,59,53,79,62,51,0.00,40.00,4,3,10,0.00
2013-2-13,76,72,68,59,55,51,62,56,46,0.00,40.00,4,3,10,0.00
2013-2-14,76,71,67,59,56,52,70,59,52,0.00,40.00,4,3,9,0.00
2013-2-15,79,72,65,61,56,47,65,56,47,0.00,40.00,6,3,11,0.00
2013-2-16,78,73,67,64,58,51,65,59,52,0.00,40.00,5,3,10,0.00
2013-2-17,80,74,67,61,57,51,64,57,49,0.00,40.00,5,3,14,0.00
2013-2-18,79,73,68,62,58,53,68,59,51,0.00,40.00,5,3,11,0.00
2013-2-19,79,73,68,62,57,48,65,57,47,0.00,40.00,6,4,13,0.00
2013-2-20,79,72,66,64,57,45,70,59,43,0.00,40.00,5,3,10,0.00
2013-2-21,80,73,67,63,58,49,69,61,50,0.00,40.00,5,3,11,0.00
2013-2-22,78,74,70,66,60,53,76,62,51,0.00,40.00,5,2,10,0.00
2013-2-23,80,73,68,67,60,51,87,64,52,0.00,40.00,4,3,14,0.03
2013-2-24,80,72,66,63,59,55,74,65,55,0.00,40.00,5,3,11,0.03
2013-2-25,80,73,66,65,59,51,68,61,53,0.00,40.00,6,4,11,0.00
2013-2-26,80,73,67,62,58,52,70,60,48,0.00,40.00,5,3,11,0.00
2013-2-27,80,73,67,63,59,50,70,61,51,0.00,40.00,5,3,12,0.00
2013-2-28,79,72,66,61,55,49,63,55,50,0.00,40.00,5,3,12,0.00
2013-3-1,79,74,68,59,57,53,64,56,47,0.00,40.00,6,3,13,0.00
2013-3-2,79,74,69,59,56,52,62,54,41,0.00,40.00,5,3,11,0.00
2013-3-3,80,73,66,61,56,45,64,55,44,0.00,40.00,5,3,11,0.00
2013-3-4,79,73,65,60,55,48,65,54,46,0.00,40.00,5,4,12,0.00
2013-3-5,80,73,67,60,56,51,62,56,49,0.00,40.00,5,3,12,0.00
2013-3-6,80,73,66,63,56,47,64,57,45,0.00,40.00,6,3,13,0.00
2013-3-7,79,73,66,62,56,44,66,57,41,0.00,40.00,5,4,11,0.00
2013-3-8,78,72,66,64,57,46,73,59,44,0.00,40.00,4,3,10,0.00
2013-3-9,81,73,66,66,55,41,68,54,34,0.00,40.00,11,4,22,0.00
2013-3-10,81,76,68,68,58,40,78,56,31,0.00,40.00,12,4,25,0.00
2013-3-11,81,74,69,70,59,47,86,62,41,0.00,40.00,5,3,11,0.06
2013-3-12,77,73,69,67,62,58,78,70,63,0.00,40.00,3,2,9,0.05
2013-3-13,80,73,66,65,60,53,70,63,55,0.00,40.00,5,3,12,0.00
2013-3-14,80,74,68,65,59,49,70,61,45,0.00,40.00,5,3,12,0.00
2013-3-15,77,72,69,68,62,56,94,69,60,0.00,40.00,5,2,11,0.15
2013-3-16,75,71,68,65,60,55,79,68,59,0.00,40.00,6,4,16,0.01
2013-3-17,75,71,68,59,57,54,68,60,53,0.00,40.00,4,2,11,0.00
2013-3-18,79,72,66,60,57,55,75,60,43,0.00,40.00,4,2,10,0.00
2013-3-19,80,73,64,62,56,49,66,56,43,0.00,40.00,5,3,10,0.00
2013-3-20,77,73,68,68,61,54,82,66,49,0.00,40.00,7,3,16,0.00
2013-3-21,81,74,67,69,63,54,78,68,54,0.00,40.00,6,3,13,0.00
2013-3-22,80,74,69,66,62,55,76,65,53,0.00,40.00,6,3,13,0.00
2013-3-23,79,72,68,68,65,60,95,77,61,0.00,40.00,5,3,13,0.57
2013-3-24,79,72,67,69,64,61,90,77,59,0.00,40.00,8,3,17,0.23
2013-3-25,81,73,66,69,62,53,82,70,49,0.00,40.00,6,3,13,0.00
2013-3-26,80,73,67,67,62,56,79,69,55,0.00,40.00,5,3,12,0.00
2013-3-27,80,73,68,64,59,54,76,63,55,0.00,40.00,4,3,9,0.00
2013-3-28,80,76,71,66,62,57,80,64,57,0.00,40.00,7,4,14,0.08
2013-3-29,80,73,68,67,61,53,88,67,49,0.00,40.00,5,4,11,0.07
2013-3-30,76,71,65,67,62,-100,84,77,62,0.00,40.00,6,3,13,0.11
2013-3-31,79,71,64,65,60,53,92,68,54,0.00,40.00,8,4,19,0.26
2013-4-1,77,70,63,56,51,43,64,51,40,0.00,40.00,7,4,17,0.23
2013-4-2,78,71,63,57,52,43,61,52,38,0.00,40.00,6,4,13,0.00
2013-4-3,80,72,65,60,54,47,65,54,42,0.00,40.00,5,3,11,0.00
2013-4-4,80,73,66,61,56,48,65,54,46,0.00,40.00,4,3,10,0.00
2013-4-5,81,74,67,64,58,51,67,59,48,0.00,40.00,5,3,11,0.00
2013-4-6,82,75,69,67,62,55,72,62,52,0.00,40.00,6,3,13,0.00
2013-4-7,81,76,70,68,63,57,74,65,57,0.00,40.00,6,3,13,0.00
2013-4-8,82,76,71,66,62,56,72,63,51,0.00,40.00,6,3,14,0.00
2013-4-9,81,74,69,66,61,52,80,65,53,0.00,40.00,6,3,15,0.00
2013-4-10,81,75,68,68,62,53,79,65,47,0.00,40.00,5,3,12,0.00
2013-4-11,82,76,72,67,63,55,78,64,47,0.00,40.00,5,3,14,0.00
2013-4-12,83,76,71,69,63,55,85,64,51,0.00,40.00,6,3,15,0.00
2013-4-13,86,77,71,67,64,61,85,66,49,0.00,40.00,12,5,24,0.00
2013-4-14,81,76,70,68,63,54,79,66,54,0.00,40.00,7,4,14,0.00
2013-4-15,82,76,68,66,62,53,71,62,45,0.00,40.00,5,3,10,0.00
2013-4-16,81,76,71,67,64,54,76,65,50,0.00,40.00,5,4,14,0.00
2013-4-17,81,75,71,70,64,55,85,69,55,0.00,40.00,5,3,11,0.03
2013-4-18,83,76,68,68,63,57,84,66,51,0.00,40.00,6,3,14,0.03
2013-4-19,82,76,69,67,62,53,70,63,53,0.00,40.00,6,4,12,0.00
2013-4-20,82,76,69,65,61,55,66,60,52,0.00,40.00,5,4,10,0.00
2013-4-21,82,76,70,67,61,52,73,60,53,0.00,40.00,6,3,11,0.00
2013-4-22,82,76,69,68,62,50,68,62,49,0.00,40.00,6,4,13,0.00
2013-4-23,83,76,70,67,63,55,75,63,50,0.00,40.00,8,4,15,0.00
2013-4-24,81,76,71,67,64,57,74,66,59,0.00,40.00,5,3,12,0.00
2013-4-25,82,76,70,67,63,59,75,65,53,0.00,40.00,5,3,12,0.00
2013-4-26,82,76,70,65,63,58,75,64,53,0.00,40.00,6,3,12,0.00
2013-4-27,82,76,70,68,61,52,71,61,47,0.00,40.00,5,4,15,0.00
2013-4-28,83,76,69,67,61,53,71,61,43,0.00,40.00,6,3,13,0.00
2013-4-29,84,77,70,65,60,51,67,56,45,0.00,40.00,5,3,12,0.00
2013-4-30,82,76,72,69,64,55,86,68,52,0.00,40.00,5,3,10,0.07
2013-5-1,82,75,69,69,63,59,81,67,50,0.00,40.00,6,3,12,0.06
2013-5-2,82,77,72,68,64,60,76,66,53,0.00,40.00,6,3,13,0.00
2013-5-3,79,74,69,70,66,62,94,76,59,0.00,40.00,4,2,11,1.13
2013-5-4,76,72,69,68,66,63,92,81,71,0.00,40.00,3,2,9,0.18
2013-5-5,81,75,68,66,63,59,79,68,53,0.00,40.00,7,3,14,0.05
2013-5-6,81,75,69,68,64,55,83,69,52,0.00,40.00,6,3,12,0.00
2013-5-7,83,76,68,66,63,59,79,64,52,0.00,40.00,5,3,11,0.00
2013-5-8,83,77,70,68,63,54,70,61,51,0.00,40.00,4,3,10,0.00
2013-5-9,84,76,72,72,66,60,94,73,59,0.00,40.00,5,2,11,0.04
2013-5-10,83,75,70,73,65,-100,91,78,58,0.00,40.00,4,2,10,0.02
2013-5-11,81,76,72,71,67,-100,87,76,60,0.00,40.00,6,3,12,0.00
2013-5-12,83,76,72,72,69,65,94,78,64,0.00,40.00,5,3,11,0.15
2013-5-13,82,75,71,72,69,63,96,83,62,0.00,40.00,5,2,11,0.39
2013-5-14,80,75,72,71,67,63,89,78,67,0.00,40.00,4,2,10,0.01
2013-5-15,84,77,71,69,65,61,76,66,57,0.00,40.00,5,3,12,0.01
2013-5-16,83,71,71,66,47,-100,70,62,53,0.00,40.00,6,4,14,0.00
2013-5-17,83,77,71,66,58,-100,66,58,43,0.00,40.00,5,4,12,0.00
2013-5-18,82,76,70,66,62,54,72,61,48,0.00,40.00,5,3,11,0.00
2013-5-19,83,77,72,68,64,58,73,63,54,0.00,40.00,7,4,13,0.00
2013-5-20,83,77,69,66,62,54,73,62,54,0.00,40.00,5,3,10,0.00
2013-5-21,84,78,70,70,62,54,86,59,46,0.00,40.00,5,4,11,0.00
2013-5-22,84,78,71,71,65,57,88,66,49,0.00,40.00,5,4,12,0.02
2013-5-23,83,76,71,70,66,58,88,70,56,0.00,40.00,5,3,10,0.02
2013-5-24,80,75,72,71,66,58,91,73,60,0.00,40.00,4,3,11,0.12
2013-5-25,83,76,72,70,67,63,90,73,55,0.00,40.00,4,3,10,0.09
2013-5-26,82,76,71,71,66,62,94,73,56,0.00,40.00,5,3,11,0.93
2013-5-27,83,76,70,69,65,61,80,69,56,0.00,40.00,5,3,10,0.93
2013-5-28,83,77,70,69,64,58,75,65,49,0.00,40.00,5,3,11,0.00
2013-5-29,84,78,71,70,65,58,78,66,54,0.00,40.00,6,3,12,0.00
2013-5-30,84,78,73,70,67,61,83,70,57,0.00,40.00,5,3,10,0.00
2013-5-31,83,77,73,72,67,63,86,70,58,0.00,40.00,5,3,11,0.01
2013-6-1,84,78,74,72,68,65,88,71,58,0.00,40.00,5,3,17,0.01
2013-6-2,84,78,71,72,68,61,91,74,58,0.00,40.00,5,3,12,0.15
2013-6-3,83,78,74,71,68,65,89,71,57,0.00,40.00,5,3,10,0.14
2013-6-4,84,77,71,71,67,62,91,72,53,0.00,40.00,4,3,11,0.17
2013-6-5,82,76,70,69,66,61,89,70,57,0.00,40.00,4,3,9,0.05
2013-6-6,82,75,70,69,66,63,94,76,56,0.00,40.00,5,3,10,0.55
2013-6-7,80,76,71,67,65,62,84,69,57,0.00,40.00,4,2,11,0.01
2013-6-8,83,75,69,69,64,58,86,69,60,0.00,40.00,5,3,13,0.01
2013-6-9,82,76,72,69,66,61,83,71,57,0.00,40.00,5,3,11,0.01
2013-6-10,82,76,70,69,65,60,80,71,59,0.00,40.00,4,3,9,0.00
2013-6-11,82,76,70,68,65,59,77,69,56,0.00,40.00,5,3,10,0.00
2013-6-12,84,78,74,67,64,62,73,64,56,0.00,40.00,5,3,10,0.00
2013-6-13,83,77,72,70,65,60,87,67,54,0.00,40.00,5,3,11,0.00
2013-6-14,83,77,71,67,65,59,80,67,56,0.00,40.00,4,3,10,0.00
2013-6-15,83,76,71,68,64,60,87,69,50,0.00,40.00,5,3,13,0.03
2013-6-16,81,76,69,67,64,61,82,67,56,0.00,40.00,4,3,9,0.03
2013-6-17,83,77,72,69,65,59,73,67,59,0.00,40.00,4,3,11,0.00
2013-6-18,82,77,71,71,65,60,81,68,56,0.00,40.00,4,3,10,0.00
2013-6-19,81,75,71,70,66,57,95,74,59,0.00,40.00,5,3,11,0.49